createdAt,value
2018-12-30T00:01:13.137Z,98713.00
2018-12-30T00:05:15.477Z,98712.00
2018-12-30T00:09:17.798Z,98717.00
2018-12-30T00:13:20.138Z,98711.00
2018-12-30T00:17:22.503Z,98716.00
2018-12-30T00:21:24.838Z,98719.00
2018-12-30T00:25:27.159Z,98723.00
2018-12-30T00:29:29.472Z,98715.00
2018-12-30T00:33:31.812Z,98736.00
2018-12-30T00:37:34.189Z,98740.00
2018-12-30T00:41:36.513Z,98757.00
2018-12-30T00:45:38.905Z,98758.00
2018-12-30T00:49:41.222Z,98756.00
2018-12-30T00:53:43.580Z,98729.00
2018-12-30T00:57:46.789Z,98766.00
2018-12-30T01:01:49.169Z,98749.00
2018-12-30T01:05:51.502Z,98763.00
2018-12-30T01:09:53.833Z,98766.00
2018-12-30T01:13:56.163Z,98743.00
2018-12-30T01:17:58.512Z,98755.00
2018-12-30T01:22:00.874Z,98747.00
2018-12-30T01:26:03.258Z,98760.00
2018-12-30T01:30:05.754Z,98770.00
2018-12-30T01:34:08.095Z,98767.00
2018-12-30T01:38:10.478Z,98777.00
2018-12-30T01:42:12.858Z,98786.00
2018-12-30T01:46:15.219Z,98758.00
2018-12-30T01:50:17.526Z,98785.00
2018-12-30T01:54:19.828Z,98787.00
2018-12-30T01:58:22.162Z,98799.00
2018-12-30T02:02:24.507Z,98795.00
2018-12-30T02:06:26.951Z,98809.00
2018-12-30T02:10:29.283Z,98811.00
2018-12-30T02:14:31.562Z,98823.00
2018-12-30T02:18:33.860Z,98812.00
2018-12-30T02:22:36.191Z,98814.00
2018-12-30T02:26:38.502Z,98826.00
2018-12-30T02:30:40.841Z,98828.00
2018-12-30T02:34:43.181Z,98836.00
2018-12-30T02:38:45.447Z,98830.00
2018-12-30T02:42:47.717Z,98830.00
2018-12-30T02:46:50.007Z,98834.00
2018-12-30T02:50:52.390Z,98844.00
2018-12-30T02:54:54.746Z,98838.00
2018-12-30T02:58:57.070Z,98842.00
2018-12-30T03:02:59.387Z,98847.00
2018-12-30T03:07:01.730Z,98856.00
2018-12-30T03:11:04.075Z,98846.00
2018-12-30T03:15:06.441Z,98865.00
2018-12-30T03:19:08.716Z,98874.00
2018-12-30T03:23:11.032Z,98882.00
2018-12-30T03:27:13.354Z,98902.00
2018-12-30T03:31:15.626Z,98906.00
2018-12-30T03:35:18.086Z,98901.00
2018-12-30T03:39:20.390Z,98920.00
2018-12-30T03:43:22.713Z,98920.00
2018-12-30T03:47:25.023Z,98916.00
2018-12-30T03:51:27.305Z,98930.00
2018-12-30T03:55:29.626Z,98930.00
2018-12-30T03:59:31.925Z,98932.00
2018-12-30T04:03:34.206Z,98929.00
2018-12-30T04:07:36.493Z,98931.00
2018-12-30T04:11:38.836Z,98950.00
2018-12-30T04:15:41.213Z,98940.00
2018-12-30T04:19:43.587Z,98946.00
2018-12-30T04:23:45.907Z,98953.00
2018-12-30T04:27:48.242Z,98953.00
2018-12-30T04:31:50.576Z,98966.00
2018-12-30T04:35:52.937Z,98977.00
2018-12-30T04:39:55.194Z,98986.00
2018-12-30T04:43:57.488Z,98985.00
2018-12-30T04:47:59.764Z,98981.00
2018-12-30T04:52:02.040Z,98988.00
2018-12-30T04:56:04.365Z,98996.00
2018-12-30T05:00:06.641Z,98995.00
2018-12-30T05:04:08.980Z,98996.00
2018-12-30T05:08:11.241Z,99000.00
2018-12-30T05:12:13.566Z,99002.00
2018-12-30T05:16:15.832Z,99025.00
2018-12-30T05:20:18.085Z,99036.00
2018-12-30T05:24:20.435Z,99047.00
2018-12-30T05:28:22.726Z,99062.00
2018-12-30T05:32:25.091Z,99073.00
2018-12-30T05:36:27.411Z,99075.00
2018-12-30T05:40:29.710Z,99066.00
2018-12-30T05:44:32.071Z,99080.00
2018-12-30T05:48:34.431Z,99086.00
2018-12-30T05:52:41.755Z,99087.00
2018-12-30T05:56:39.109Z,99098.00
2018-12-30T06:00:41.396Z,99117.00
2018-12-30T06:04:43.652Z,99105.00
2018-12-30T06:08:45.988Z,99133.00
2018-12-30T06:12:48.310Z,99140.00
2018-12-30T06:16:50.591Z,99149.00
2018-12-30T06:20:52.950Z,99164.00
2018-12-30T06:24:55.365Z,99167.00
2018-12-30T06:28:57.681Z,99171.00
2018-12-30T06:32:59.971Z,99183.00
2018-12-30T06:37:02.321Z,99180.00
2018-12-30T06:41:04.640Z,99184.00
2018-12-30T06:45:06.948Z,99189.00
2018-12-30T06:49:10.625Z,99180.00
2018-12-30T06:53:11.629Z,99179.00
2018-12-30T06:57:13.928Z,99173.00
2018-12-30T07:01:16.260Z,99181.00
2018-12-30T07:05:18.544Z,99175.00
2018-12-30T07:09:20.873Z,99190.00
2018-12-30T07:13:23.286Z,99192.00
2018-12-30T07:17:25.670Z,99198.00
2018-12-30T07:21:27.963Z,99212.00
2018-12-30T07:25:30.268Z,99228.00
2018-12-30T07:29:32.561Z,99238.00
2018-12-30T07:33:34.984Z,99236.00
2018-12-30T07:37:37.271Z,99254.00
2018-12-30T07:41:39.580Z,99266.00
2018-12-30T07:45:41.936Z,99277.00
2018-12-30T07:49:44.274Z,99281.00
2018-12-30T07:53:46.544Z,99292.00
2018-12-30T07:57:48.883Z,99279.00
2018-12-30T08:01:51.243Z,99275.00
2018-12-30T08:05:53.580Z,99280.00
2018-12-30T08:09:55.871Z,99289.00
2018-12-30T08:13:58.253Z,99278.00
2018-12-30T08:18:00.570Z,99307.00
2018-12-30T08:22:02.888Z,99308.00
2018-12-30T08:26:05.248Z,99297.00
2018-12-30T08:30:07.634Z,99306.00
2018-12-30T08:34:10.074Z,99311.00
2018-12-30T08:38:12.376Z,99306.00
2018-12-30T08:42:14.715Z,99305.00
2018-12-30T08:46:17.045Z,99304.00
2018-12-30T08:50:19.370Z,99309.00
2018-12-30T08:54:21.679Z,99315.00
2018-12-30T08:58:24.035Z,99320.00
2018-12-30T09:02:26.313Z,99326.00
2018-12-30T09:06:28.635Z,99326.00
2018-12-30T09:10:31.044Z,99329.00
2018-12-30T09:14:33.473Z,99336.00
2018-12-30T09:18:35.843Z,99343.00
2018-12-30T09:22:38.186Z,99350.00
2018-12-30T09:26:40.523Z,99369.00
2018-12-30T09:30:42.861Z,99371.00
2018-12-30T09:34:45.317Z,99374.00
2018-12-30T09:38:47.671Z,99370.00
2018-12-30T09:42:49.991Z,99369.00
2018-12-30T09:46:53.689Z,99371.00
2018-12-30T09:50:56.030Z,99370.00
2018-12-30T09:54:58.351Z,99375.00
2018-12-30T09:59:00.776Z,99374.00
2018-12-30T10:03:03.096Z,99371.00
2018-12-30T10:07:05.478Z,99384.00
2018-12-30T10:11:07.825Z,99395.00
2018-12-30T10:15:10.311Z,99406.00
2018-12-30T10:19:13.540Z,99404.00
2018-12-30T10:23:15.890Z,99405.00
2018-12-30T10:27:18.311Z,99397.00
2018-12-30T10:31:20.681Z,99396.00
2018-12-30T10:35:23.074Z,99393.00
2018-12-30T10:39:25.495Z,99392.00
2018-12-30T10:43:27.844Z,99393.00
2018-12-30T10:47:30.721Z,99404.00
2018-12-30T10:51:33.059Z,99409.00
2018-12-30T10:55:35.494Z,99410.00
2018-12-30T10:59:38.378Z,99420.00
2018-12-30T11:03:40.771Z,99419.00
2018-12-30T11:07:43.119Z,99422.00
2018-12-30T11:11:45.462Z,99423.00
2018-12-30T11:15:47.779Z,99422.00
2018-12-30T11:19:50.249Z,99407.00
2018-12-30T11:23:52.566Z,99399.00
2018-12-30T11:27:54.875Z,99397.00
2018-12-30T11:31:57.261Z,99392.00
2018-12-30T11:35:59.633Z,99379.00
2018-12-30T11:40:02.010Z,99377.00
2018-12-30T11:44:04.423Z,99355.00
2018-12-30T11:48:06.834Z,99353.00
2018-12-30T11:52:09.213Z,99358.00
2018-12-30T11:56:11.627Z,99349.00
2018-12-30T12:00:14.019Z,99349.00
2018-12-30T12:04:16.383Z,99343.00
2018-12-30T12:08:18.779Z,99349.00
2018-12-30T12:12:21.186Z,99351.00
2018-12-30T12:16:24.822Z,99340.00
2018-12-30T12:20:27.246Z,99334.00
2018-12-30T12:24:29.580Z,99325.00
2018-12-30T12:28:31.919Z,99342.00
2018-12-30T12:32:34.304Z,99333.00
2018-12-30T12:36:36.697Z,99336.00
2018-12-30T12:40:39.054Z,99336.00
2018-12-30T12:44:41.472Z,99335.00
2018-12-30T12:48:43.902Z,99347.00
2018-12-30T12:52:46.277Z,99336.00
2018-12-30T12:56:48.673Z,99342.00
2018-12-30T13:00:50.991Z,99342.00
2018-12-30T13:04:53.373Z,99344.00
2018-12-30T13:08:55.719Z,99345.00
2018-12-30T13:12:58.130Z,99357.00
2018-12-30T13:17:00.468Z,99351.00
2018-12-30T13:21:02.861Z,99363.00
2018-12-30T13:25:06.481Z,99349.00
2018-12-30T13:29:08.959Z,99360.00
2018-12-30T13:33:11.319Z,99357.00
2018-12-30T13:37:13.688Z,99365.00
2018-12-30T13:41:16.073Z,99367.00
2018-12-30T13:45:18.439Z,99374.00
2018-12-30T13:49:20.790Z,99392.00
2018-12-30T13:53:23.929Z,99393.00
2018-12-30T13:57:26.363Z,99394.00
2018-12-30T14:01:29.333Z,99403.00
2018-12-30T14:05:31.632Z,99400.00
2018-12-30T14:09:33.974Z,99392.00
2018-12-30T14:13:36.318Z,99402.00
2018-12-30T14:17:38.678Z,99401.00
2018-12-30T14:21:41.382Z,99398.00
2018-12-30T14:25:43.741Z,99400.00
2018-12-30T14:29:46.101Z,99417.00
2018-12-30T14:33:48.452Z,99426.00
2018-12-30T14:37:50.787Z,99439.00
2018-12-30T14:41:53.101Z,99428.00
2018-12-30T14:45:55.462Z,99428.00
2018-12-30T14:49:57.807Z,99423.00
2018-12-30T14:54:00.168Z,99425.00
2018-12-30T14:58:02.652Z,99425.00
2018-12-30T15:02:06.302Z,99407.00
2018-12-30T15:06:08.681Z,99410.00
2018-12-30T15:10:11.263Z,99422.00
2018-12-30T15:14:13.861Z,99445.00
2018-12-30T15:18:16.218Z,99432.00
2018-12-30T15:22:18.620Z,99429.00
2018-12-30T15:26:21.080Z,99424.00
2018-12-30T15:30:23.470Z,99418.00
2018-12-30T15:34:26.128Z,99417.00
2018-12-30T15:38:28.362Z,99415.00
2018-12-30T15:42:31.420Z,99417.00
2018-12-30T15:46:33.997Z,99403.00
2018-12-30T15:50:36.400Z,99379.00
2018-12-30T15:54:39.211Z,99382.00
2018-12-30T15:58:41.598Z,99396.00
2018-12-30T16:02:43.965Z,99394.00
2018-12-30T16:06:46.604Z,99384.00
2018-12-30T16:10:49.091Z,99400.00
2018-12-30T16:14:51.719Z,99403.00
2018-12-30T16:18:54.139Z,99402.00
2018-12-30T16:22:56.581Z,99387.00
2018-12-30T16:26:59.995Z,99387.00
2018-12-30T16:31:02.415Z,99393.00
2018-12-30T16:35:06.077Z,99405.00
2018-12-30T16:39:08.985Z,99411.00
2018-12-30T16:43:11.317Z,99410.00
2018-12-30T16:47:16.032Z,99392.00
2018-12-30T16:51:18.396Z,99403.00
2018-12-30T16:55:21.535Z,99408.00
2018-12-30T16:59:23.869Z,99389.00
2018-12-30T17:03:26.205Z,99400.00
2018-12-30T17:07:28.624Z,99393.00
2018-12-30T17:11:31.927Z,99391.00
2018-12-30T17:15:34.355Z,99385.00
2018-12-30T17:19:36.736Z,99388.00
2018-12-30T17:23:39.228Z,99398.00
2018-12-30T17:27:41.581Z,99400.00
2018-12-30T17:31:43.909Z,99402.00
2018-12-30T17:35:47.290Z,99408.00
2018-12-30T17:39:49.643Z,99405.00
2018-12-30T17:43:52.835Z,99397.00
2018-12-30T17:47:55.220Z,99400.00
2018-12-30T17:51:57.645Z,99399.00
2018-12-30T17:56:00.049Z,99404.00
2018-12-30T18:00:02.542Z,99414.00
2018-12-30T18:04:04.911Z,99413.00
2018-12-30T18:08:07.349Z,99416.00
2018-12-30T18:12:11.313Z,99421.00
2018-12-30T18:16:13.743Z,99420.00
2018-12-30T18:20:16.202Z,99434.00
2018-12-30T18:24:18.581Z,99426.00
2018-12-30T18:28:22.376Z,99417.00
2018-12-30T18:32:24.711Z,99409.00
2018-12-30T18:36:27.644Z,99408.00
2018-12-30T18:40:30.875Z,99420.00
2018-12-30T18:44:33.217Z,99420.00
2018-12-30T18:48:35.519Z,99430.00
2018-12-30T18:52:37.945Z,99436.00
2018-12-30T18:56:40.546Z,99426.00
2018-12-30T19:00:42.996Z,99427.00
2018-12-30T19:04:46.805Z,99422.00
2018-12-30T19:08:49.766Z,99422.00
2018-12-30T19:12:52.096Z,99417.00
2018-12-30T19:16:54.409Z,99430.00
2018-12-30T19:20:56.818Z,99430.00
2018-12-30T19:24:59.167Z,99424.00
2018-12-30T19:29:01.565Z,99434.00
2018-12-30T19:33:03.964Z,99434.00
2018-12-30T19:37:06.416Z,99434.00
2018-12-30T19:41:08.774Z,99429.00
2018-12-30T19:45:11.206Z,99434.00
2018-12-30T19:49:13.664Z,99434.00
2018-12-30T19:53:16.099Z,99441.00
2018-12-30T19:57:19.764Z,99432.00
2018-12-30T20:01:22.100Z,99433.00
2018-12-30T20:05:24.450Z,99426.00
2018-12-30T20:09:27.300Z,99419.00
2018-12-30T20:13:30.231Z,99418.00
2018-12-30T20:17:32.565Z,99408.00
2018-12-30T20:21:35.198Z,99405.00
2018-12-30T20:25:37.519Z,99401.00
2018-12-30T20:29:40.423Z,99392.00
2018-12-30T20:33:43.065Z,99387.00
2018-12-30T20:37:45.416Z,99384.00
2018-12-30T20:41:47.825Z,99384.00
2018-12-30T20:45:50.515Z,99383.00
2018-12-30T20:49:53.326Z,99388.00
2018-12-30T20:53:55.803Z,99386.00
2018-12-30T20:57:58.418Z,99377.00
2018-12-30T21:02:00.759Z,99374.00
2018-12-30T21:06:03.963Z,99372.00
2018-12-30T21:10:08.540Z,99363.00
2018-12-30T21:14:11.904Z,99364.00
2018-12-30T21:18:16.164Z,99362.00
2018-12-30T21:22:18.621Z,99357.00
2018-12-30T21:26:21.065Z,99360.00
2018-12-30T21:30:23.450Z,99347.00
2018-12-30T21:34:27.027Z,99348.00
2018-12-30T21:38:29.472Z,99354.00
2018-12-30T21:42:31.842Z,99347.00
2018-12-30T21:46:34.213Z,99350.00
2018-12-30T21:50:36.635Z,99354.00
2018-12-30T21:54:38.934Z,99337.00
2018-12-30T21:58:41.308Z,99338.00
2018-12-30T22:02:43.642Z,99341.00
2018-12-30T22:06:47.053Z,99328.00
2018-12-30T22:10:49.507Z,99326.00
2018-12-30T22:14:51.802Z,99318.00
2018-12-30T22:18:54.200Z,99316.00
2018-12-30T22:22:56.909Z,99320.00
2018-12-30T22:26:59.358Z,99312.00
2018-12-30T22:31:01.724Z,99318.00
2018-12-30T22:35:04.530Z,99306.00
2018-12-30T22:39:07.113Z,99304.00
2018-12-30T22:43:09.591Z,99315.00
2018-12-30T22:47:11.947Z,99299.00
2018-12-30T22:51:14.311Z,99314.00
2018-12-30T22:55:16.637Z,99322.00
2018-12-30T22:59:19.944Z,99312.00
2018-12-30T23:03:22.872Z,99312.00
2018-12-30T23:07:25.227Z,99311.00
2018-12-30T23:11:27.621Z,99304.00
2018-12-30T23:15:30.012Z,99296.00
2018-12-30T23:19:32.457Z,99305.00
2018-12-30T23:23:34.832Z,99305.00
2018-12-30T23:27:37.151Z,99305.00
2018-12-30T23:31:39.668Z,99316.00
2018-12-30T23:35:42.061Z,99306.00
2018-12-30T23:39:44.580Z,99328.00
2018-12-30T23:43:47.018Z,99296.00
2018-12-30T23:47:50.074Z,99294.00
2018-12-30T23:51:52.388Z,99310.00
2018-12-30T23:55:54.711Z,99300.00
2018-12-30T23:59:57.008Z,99307.00
